Terminal Aerodrome Forecast
Issued by NWS

Home | Current Version | Previous Version | Text Only | Print | Product List | Glossary On
Versions: 1 2 3 4 5 6 7 8 9 10 11 12 13 14
000
FTUS46 KPDT 281700
TAFBDN
TAF
KBDN 281720Z 2818/2918 34011KT P6SM SCT150
     FM282100 34011KT P6SM SCT150
     FM290300 32004KT P6SM SCT120
     FM290900 21004KT P6SM SCT120=

USA.gov is the U.S. government's official web portal to all federal, state and local government web resources and services.